createdAt,value
2018-07-16T00:01:14.632Z,70.79
2018-07-16T00:03:43.244Z,71.25
2018-07-16T00:06:11.616Z,71.14
2018-07-16T00:08:40.122Z,72.06
2018-07-16T00:11:08.562Z,72.36
2018-07-16T00:13:36.872Z,72.52
2018-07-16T00:16:05.681Z,71.95
2018-07-16T00:18:34.005Z,72.63
2018-07-16T00:21:02.468Z,72.96
2018-07-16T00:23:30.918Z,72.44
2018-07-16T00:25:59.405Z,72.40
2018-07-16T00:28:27.944Z,72.75
2018-07-16T00:30:56.496Z,73.21
2018-07-16T00:33:24.852Z,73.46
2018-07-16T00:35:53.711Z,73.21
2018-07-16T00:38:22.273Z,73.24
2018-07-16T00:40:50.831Z,73.36
2018-07-16T00:43:19.444Z,73.53
2018-07-16T00:45:49.480Z,73.00
2018-07-16T00:48:17.900Z,72.59
2018-07-16T00:50:46.335Z,72.60
2018-07-16T00:53:14.717Z,73.01
2018-07-16T00:55:43.084Z,73.26
2018-07-16T00:58:11.684Z,73.24
2018-07-16T01:00:40.214Z,72.97
2018-07-16T01:03:08.504Z,73.49
2018-07-16T01:05:36.891Z,73.32
2018-07-16T01:08:05.600Z,73.67
2018-07-16T01:10:33.993Z,73.74
2018-07-16T01:13:02.666Z,73.94
2018-07-16T01:15:31.079Z,74.48
2018-07-16T01:17:59.516Z,73.96
2018-07-16T01:20:28.244Z,74.25
2018-07-16T01:22:56.671Z,74.32
2018-07-16T01:25:25.383Z,75.01
2018-07-16T01:27:53.472Z,75.19
2018-07-16T01:30:22.188Z,75.25
2018-07-16T01:32:50.563Z,75.74
2018-07-16T01:35:18.967Z,75.62
2018-07-16T01:37:47.328Z,75.88
2018-07-16T01:40:15.763Z,75.78
2018-07-16T01:42:44.132Z,76.21
2018-07-16T01:45:12.477Z,75.43
2018-07-16T01:47:41.156Z,76.13
2018-07-16T01:50:09.586Z,75.93
2018-07-16T01:52:38.045Z,75.91
2018-07-16T01:55:06.148Z,76.12
2018-07-16T01:57:34.240Z,76.60
2018-07-16T02:00:02.689Z,76.29
2018-07-16T02:02:31.128Z,76.32
2018-07-16T02:04:59.571Z,76.72
2018-07-16T02:07:28.292Z,77.07
2018-07-16T02:09:57.016Z,76.84
2018-07-16T02:12:25.440Z,77.09
2018-07-16T02:14:53.876Z,76.97
2018-07-16T02:17:22.355Z,77.32
2018-07-16T02:19:51.100Z,77.16
2018-07-16T02:22:19.198Z,77.50
2018-07-16T02:24:47.844Z,77.52
2018-07-16T02:27:16.283Z,77.63
2018-07-16T02:29:44.396Z,77.99
2018-07-16T02:32:12.881Z,78.53
2018-07-16T02:34:41.443Z,78.52
2018-07-16T02:37:09.548Z,78.74
2018-07-16T02:39:37.655Z,78.55
2018-07-16T02:42:06.473Z,78.30
2018-07-16T02:44:34.776Z,78.36
2018-07-16T02:47:03.400Z,79.04
2018-07-16T02:49:31.861Z,79.42
2018-07-16T02:52:00.670Z,79.30
2018-07-16T02:54:29.224Z,79.57
2018-07-16T02:56:58.084Z,79.29
2018-07-16T02:59:26.591Z,79.85
2018-07-16T03:01:55.515Z,80.07
2018-07-16T03:04:23.964Z,80.49
2018-07-16T03:06:52.681Z,80.22
2018-07-16T03:09:21.296Z,80.51
2018-07-16T03:11:49.668Z,80.83
2018-07-16T03:14:18.005Z,80.37
2018-07-16T03:16:46.396Z,80.77
2018-07-16T03:19:14.736Z,81.00
2018-07-16T03:21:43.644Z,81.64
2018-07-16T03:24:12.059Z,81.58
2018-07-16T03:26:40.645Z,81.50
2018-07-16T03:29:09.076Z,81.41
2018-07-16T03:31:37.737Z,81.89
2018-07-16T03:34:06.652Z,82.17
2018-07-16T03:36:35.297Z,82.37
2018-07-16T03:39:04.551Z,82.44
2018-07-16T03:41:32.987Z,82.30
2018-07-16T03:44:01.721Z,82.38
2018-07-16T03:46:30.944Z,81.86
2018-07-16T03:48:59.352Z,82.17
2018-07-16T03:51:27.932Z,82.57
2018-07-16T03:53:56.884Z,82.69
2018-07-16T03:56:25.244Z,82.77
2018-07-16T03:58:54.014Z,82.69
2018-07-16T04:01:22.567Z,82.32
2018-07-16T04:03:50.673Z,82.40
2018-07-16T04:06:18.802Z,82.45
2018-07-16T04:08:47.085Z,82.89
2018-07-16T04:11:15.492Z,82.39
2018-07-16T04:13:43.907Z,82.27
2018-07-16T04:16:12.591Z,82.28
2018-07-16T04:18:40.705Z,82.27
2018-07-16T04:21:09.011Z,82.01
2018-07-16T04:23:37.613Z,82.85
2018-07-16T04:26:05.919Z,82.03
2018-07-16T04:28:34.378Z,81.72
2018-07-16T04:31:03.095Z,81.59
2018-07-16T04:33:32.180Z,81.49
2018-07-16T04:36:01.017Z,80.98
2018-07-16T04:38:29.904Z,80.65
2018-07-16T04:40:57.997Z,79.97
2018-07-16T04:43:26.752Z,79.63
2018-07-16T04:45:55.469Z,79.54
2018-07-16T04:48:23.623Z,78.67
2018-07-16T04:50:51.739Z,78.59
2018-07-16T04:53:19.856Z,78.76
2018-07-16T04:55:48.297Z,78.16
2018-07-16T04:58:16.439Z,78.73
2018-07-16T05:00:45.063Z,78.06
2018-07-16T05:03:13.739Z,77.43
2018-07-16T05:05:42.339Z,77.39
2018-07-16T05:08:10.769Z,77.33
2018-07-16T05:10:38.856Z,77.34
2018-07-16T05:13:07.352Z,77.20
2018-07-16T05:15:35.653Z,76.39
2018-07-16T05:18:03.963Z,76.94
2018-07-16T05:20:32.819Z,77.32
2018-07-16T05:23:01.569Z,77.23
2018-07-16T05:25:30.259Z,77.42
2018-07-16T05:27:58.993Z,77.22
2018-07-16T05:30:27.449Z,76.69
2018-07-16T05:32:55.913Z,76.21
2018-07-16T05:35:24.011Z,76.39
2018-07-16T05:37:52.446Z,76.71
2018-07-16T05:40:20.783Z,75.96
2018-07-16T05:42:49.908Z,75.42
2018-07-16T05:45:18.240Z,74.90
2018-07-16T05:47:46.611Z,75.22
2018-07-16T05:50:15.295Z,74.60
2018-07-16T05:52:43.944Z,74.55
2018-07-16T05:55:12.073Z,74.53
2018-07-16T05:57:40.195Z,74.50
2018-07-16T06:00:08.590Z,74.18
2018-07-16T06:02:36.969Z,73.95
2018-07-16T06:05:05.572Z,73.20
2018-07-16T06:07:34.083Z,72.98
2018-07-16T06:10:02.660Z,72.07
2018-07-16T06:12:31.103Z,72.07
2018-07-16T06:15:00.124Z,71.24
2018-07-16T06:17:28.559Z,70.77
2018-07-16T06:19:56.921Z,71.01
2018-07-16T06:22:25.380Z,70.29
2018-07-16T06:24:54.100Z,69.62
2018-07-16T06:27:22.672Z,69.09
2018-07-16T06:29:51.003Z,69.35
2018-07-16T06:32:19.360Z,68.46
2018-07-16T06:34:47.848Z,69.08
2018-07-16T06:37:16.528Z,67.81
2018-07-16T06:39:44.923Z,66.40
2018-07-16T06:42:13.517Z,66.02
2018-07-16T06:44:42.260Z,64.47
2018-07-16T06:47:10.768Z,64.41
2018-07-16T06:49:39.440Z,64.71
2018-07-16T06:52:08.296Z,64.14
2018-07-16T06:54:37.020Z,64.23
2018-07-16T06:57:05.456Z,63.79
2018-07-16T06:59:33.844Z,63.03
2018-07-16T07:02:02.725Z,63.05
2018-07-16T07:04:31.131Z,61.96
2018-07-16T07:06:59.693Z,60.38
2018-07-16T07:09:28.548Z,60.03
2018-07-16T07:11:57.172Z,60.80
2018-07-16T07:14:25.621Z,60.01
2018-07-16T07:16:54.376Z,59.15
2018-07-16T07:19:23.686Z,59.82
2018-07-16T07:21:52.108Z,59.25
2018-07-16T07:24:20.404Z,58.96
2018-07-16T07:26:50.431Z,58.32
2018-07-16T07:29:18.541Z,58.46
2018-07-16T07:31:48.085Z,57.36
2018-07-16T07:34:16.428Z,56.75
2018-07-16T07:36:45.264Z,56.18
2018-07-16T07:39:15.308Z,56.00
2018-07-16T07:41:43.416Z,55.69
2018-07-16T07:44:12.808Z,55.14
2018-07-16T07:46:41.082Z,54.43
2018-07-16T07:49:09.604Z,53.34
2018-07-16T07:51:38.279Z,53.51
2018-07-16T07:54:07.293Z,52.60
2018-07-16T07:56:35.503Z,52.06
2018-07-16T07:59:04.680Z,52.46
2018-07-16T08:01:33.091Z,52.21
2018-07-16T08:04:02.608Z,52.09
2018-07-16T08:06:31.080Z,51.53
2018-07-16T08:08:59.706Z,51.81
2018-07-16T08:11:28.281Z,51.35
2018-07-16T08:13:56.940Z,49.92
2018-07-16T08:16:25.504Z,48.56
2018-07-16T08:18:54.623Z,48.74
2018-07-16T08:21:23.267Z,49.32
2018-07-16T08:23:51.897Z,49.71
2018-07-16T08:26:20.555Z,48.91
2018-07-16T08:28:50.310Z,48.00
2018-07-16T08:31:18.956Z,47.04
2018-07-16T08:33:47.354Z,46.54
2018-07-16T08:36:15.590Z,46.54
2018-07-16T08:38:43.912Z,47.99
2018-07-16T08:41:12.828Z,46.18
2018-07-16T08:43:41.383Z,45.82
2018-07-16T08:46:10.088Z,46.41
2018-07-16T08:48:38.652Z,46.27
2018-07-16T08:51:08.024Z,45.82
2018-07-16T08:53:36.605Z,46.11
2018-07-16T08:56:05.239Z,46.06
2018-07-16T08:58:33.660Z,45.98
2018-07-16T09:01:07.668Z,46.94
2018-07-16T09:03:42.181Z,45.50
2018-07-16T09:06:10.272Z,45.87
2018-07-16T09:08:38.592Z,44.80
2018-07-16T09:11:07.101Z,44.84
2018-07-16T09:13:35.739Z,44.52
2018-07-16T09:16:04.531Z,44.13
2018-07-16T09:18:33.192Z,42.75
2018-07-16T09:21:02.120Z,42.43
2018-07-16T09:23:30.301Z,42.88
2018-07-16T09:25:58.924Z,43.27
2018-07-16T09:28:27.284Z,42.82
2018-07-16T09:30:56.248Z,42.25
2018-07-16T09:33:24.545Z,41.30
2018-07-16T09:35:54.915Z,40.59
2018-07-16T09:38:23.312Z,40.72
2018-07-16T09:40:51.732Z,41.74
2018-07-16T09:43:20.125Z,41.27
2018-07-16T09:45:48.700Z,40.78
2018-07-16T09:48:16.796Z,40.98
2018-07-16T09:50:45.793Z,41.57
2018-07-16T09:53:16.630Z,40.28
2018-07-16T09:55:44.724Z,40.40
2018-07-16T09:58:13.203Z,40.31
2018-07-16T10:00:47.181Z,42.43
2018-07-16T10:03:22.551Z,40.59
2018-07-16T10:05:50.865Z,39.29
2018-07-16T10:08:20.074Z,39.02
2018-07-16T10:10:48.345Z,38.14
2018-07-16T10:13:16.670Z,39.01
2018-07-16T10:15:45.119Z,39.74
2018-07-16T10:18:13.352Z,38.50
2018-07-16T10:20:42.039Z,38.65
2018-07-16T10:23:10.503Z,38.97
2018-07-16T10:25:39.182Z,39.72
2018-07-16T10:28:17.195Z,38.96
2018-07-16T10:30:45.853Z,38.06
2018-07-16T10:33:13.984Z,37.68
2018-07-16T10:35:42.416Z,38.28
2018-07-16T10:38:10.531Z,38.69
2018-07-16T10:40:38.959Z,37.12
2018-07-16T10:43:07.966Z,36.85
2018-07-16T10:45:36.517Z,38.52
2018-07-16T10:48:05.940Z,37.65
2018-07-16T10:50:34.656Z,36.26
2018-07-16T10:53:02.748Z,36.13
2018-07-16T10:55:30.977Z,36.96
2018-07-16T10:57:59.488Z,36.54
2018-07-16T11:00:28.036Z,35.78
2018-07-16T11:02:56.846Z,35.51
2018-07-16T11:05:25.189Z,35.19
2018-07-16T11:07:54.036Z,36.56
2018-07-16T11:10:23.189Z,35.98
2018-07-16T11:12:51.847Z,36.04
2018-07-16T11:15:20.195Z,36.63
2018-07-16T11:17:48.957Z,36.10
2018-07-16T11:20:17.440Z,35.32
2018-07-16T11:22:45.584Z,34.35
2018-07-16T11:25:14.786Z,33.54
2018-07-16T11:27:42.943Z,34.03
2018-07-16T11:30:11.702Z,34.93
2018-07-16T11:32:39.900Z,35.29
2018-07-16T11:35:08.049Z,34.91
2018-07-16T11:37:36.902Z,34.14
2018-07-16T11:40:12.228Z,33.35
2018-07-16T11:45:33.353Z,32.43
2018-07-16T11:48:02.177Z,32.30
2018-07-16T11:50:30.665Z,34.06
2018-07-16T11:52:58.946Z,33.72
2018-07-16T11:55:27.143Z,32.56
2018-07-16T11:57:56.525Z,32.49
2018-07-16T12:00:27.944Z,32.71
2018-07-16T12:02:56.680Z,33.71
2018-07-16T12:05:28.296Z,33.88
2018-07-16T12:07:57.268Z,32.70
2018-07-16T12:10:25.927Z,32.78
2018-07-16T12:12:54.364Z,32.17
2018-07-16T12:15:23.051Z,33.29
2018-07-16T12:17:52.101Z,33.90
2018-07-16T12:20:20.737Z,34.24
2018-07-16T12:22:48.992Z,34.06
2018-07-16T12:25:17.460Z,33.41
2018-07-16T12:27:45.873Z,31.97
2018-07-16T12:30:14.523Z,31.87
2018-07-16T12:32:42.820Z,32.43
2018-07-16T12:35:11.262Z,33.10
2018-07-16T12:37:40.006Z,32.65
2018-07-16T12:40:08.453Z,33.60
2018-07-16T12:42:36.772Z,33.86
2018-07-16T12:45:05.424Z,34.41
2018-07-16T12:47:34.018Z,32.71
2018-07-16T12:50:02.635Z,33.24
2018-07-16T12:52:31.531Z,32.11
2018-07-16T12:54:59.926Z,30.95
2018-07-16T12:57:28.033Z,30.34
2018-07-16T12:59:56.512Z,30.25
2018-07-16T13:02:25.517Z,31.59
2018-07-16T13:04:53.952Z,31.11
2018-07-16T13:07:22.845Z,31.07
2018-07-16T13:09:51.068Z,33.01
2018-07-16T13:12:19.169Z,32.38
2018-07-16T13:14:47.565Z,32.13
2018-07-16T13:17:16.083Z,32.62
2018-07-16T13:19:44.185Z,31.49
2018-07-16T13:22:12.403Z,32.68
2018-07-16T13:24:40.880Z,33.02
2018-07-16T13:27:10.130Z,32.35
2018-07-16T13:29:38.803Z,32.10
2018-07-16T13:32:07.235Z,31.71
2018-07-16T13:34:35.357Z,31.66
2018-07-16T13:37:03.736Z,30.60
2018-07-16T13:39:32.011Z,30.93
2018-07-16T13:42:01.076Z,31.42
2018-07-16T13:44:29.205Z,31.32
2018-07-16T13:46:57.586Z,30.66
2018-07-16T13:49:26.119Z,30.13
2018-07-16T13:51:55.001Z,28.60
2018-07-16T13:54:23.674Z,30.11
2018-07-16T13:56:52.206Z,30.90
2018-07-16T13:59:20.440Z,30.27
2018-07-16T14:01:49.375Z,30.45
2018-07-16T14:04:17.972Z,31.25
2018-07-16T14:06:46.616Z,31.97
2018-07-16T14:09:14.956Z,31.88
2018-07-16T14:11:43.376Z,30.89
2018-07-16T14:14:12.360Z,30.13
2018-07-16T14:16:40.643Z,30.33
2018-07-16T14:19:09.049Z,30.52
2018-07-16T14:21:37.540Z,29.56
2018-07-16T14:24:06.272Z,29.79
2018-07-16T14:26:34.372Z,30.21
2018-07-16T14:29:02.692Z,29.98
2018-07-16T14:31:31.357Z,29.35
2018-07-16T14:34:00.034Z,30.06
2018-07-16T14:36:28.464Z,30.29
2018-07-16T14:38:56.919Z,30.48
2018-07-16T14:41:25.048Z,30.04
2018-07-16T14:43:56.384Z,29.88
2018-07-16T14:46:24.472Z,30.12
2018-07-16T14:48:53.605Z,29.80
2018-07-16T14:51:21.995Z,29.98
2018-07-16T14:56:32.399Z,31.05
2018-07-16T14:59:00.588Z,31.62
2018-07-16T15:01:29.017Z,32.75
2018-07-16T15:03:57.998Z,31.79
2018-07-16T15:06:26.168Z,31.71
2018-07-16T15:08:54.556Z,32.25
2018-07-16T15:11:23.004Z,32.86
2018-07-16T15:13:51.938Z,32.47
2018-07-16T15:16:20.457Z,30.84
2018-07-16T15:18:48.632Z,31.82
2018-07-16T15:21:17.625Z,31.49
2018-07-16T15:23:46.163Z,31.40
2018-07-16T15:26:14.483Z,32.12
2018-07-16T15:28:42.588Z,32.92
2018-07-16T15:31:23.080Z,31.90
2018-07-16T15:33:51.788Z,32.29
2018-07-16T15:36:20.516Z,31.71
2018-07-16T15:38:48.942Z,31.26
2018-07-16T15:41:17.228Z,30.87
2018-07-16T15:43:45.859Z,30.74
2018-07-16T15:46:14.519Z,30.66
2018-07-16T15:48:43.177Z,32.07
2018-07-16T15:51:11.672Z,31.51
2018-07-16T15:53:39.904Z,31.98
2018-07-16T15:56:08.262Z,31.17
2018-07-16T15:58:36.896Z,30.48
2018-07-16T16:01:05.535Z,30.04
2018-07-16T16:03:34.352Z,31.21
2018-07-16T16:06:03.316Z,30.17
2018-07-16T16:08:31.411Z,30.76
2018-07-16T16:10:59.495Z,30.83
2018-07-16T16:13:28.179Z,30.89
2018-07-16T16:15:56.489Z,31.49
2018-07-16T16:18:24.721Z,31.39
2018-07-16T16:20:53.488Z,32.61
2018-07-16T16:23:22.078Z,31.52
2018-07-16T16:25:51.957Z,31.75
2018-07-16T16:28:20.215Z,32.08
2018-07-16T16:30:48.420Z,32.41
2018-07-16T16:33:16.511Z,32.47
2018-07-16T16:35:44.676Z,33.08
2018-07-16T16:38:13.100Z,33.36
2018-07-16T16:40:41.594Z,33.79
2018-07-16T16:43:10.523Z,33.70
2018-07-16T16:45:39.299Z,34.93
2018-07-16T16:48:07.908Z,34.82
2018-07-16T16:50:36.476Z,34.72
2018-07-16T16:53:04.967Z,35.14
2018-07-16T16:55:41.029Z,35.26
2018-07-16T16:58:09.417Z,35.41
2018-07-16T17:00:38.055Z,35.32
2018-07-16T17:03:06.736Z,35.62
2018-07-16T17:05:34.899Z,35.42
2018-07-16T17:08:03.920Z,36.25
2018-07-16T17:10:32.733Z,36.64
2018-07-16T17:13:01.157Z,35.59
2018-07-16T17:15:29.383Z,34.93
2018-07-16T17:17:57.983Z,35.59
2018-07-16T17:20:26.816Z,35.47
2018-07-16T17:22:55.137Z,35.71
2018-07-16T17:25:23.665Z,36.29
2018-07-16T17:27:51.780Z,36.39
2018-07-16T17:30:21.159Z,36.57
2018-07-16T17:32:49.838Z,36.57
2018-07-16T17:35:19.197Z,36.92
2018-07-16T17:37:47.394Z,36.89
2018-07-16T17:40:16.053Z,37.25
2018-07-16T17:42:44.871Z,37.42
2018-07-16T17:45:12.996Z,36.66
2018-07-16T17:47:41.956Z,37.45
2018-07-16T17:50:14.312Z,37.67
2018-07-16T17:52:42.757Z,37.27
2018-07-16T17:55:11.096Z,37.64
2018-07-16T17:57:39.484Z,37.34
2018-07-16T18:00:08.304Z,37.55
2018-07-16T18:02:36.557Z,37.93
2018-07-16T18:05:05.122Z,37.60
2018-07-16T18:07:33.605Z,38.76
2018-07-16T18:10:02.076Z,38.18
2018-07-16T18:12:30.802Z,38.70
2018-07-16T18:14:59.264Z,38.81
2018-07-16T18:17:27.945Z,38.97
2018-07-16T18:19:56.763Z,39.25
2018-07-16T18:22:25.214Z,38.89
2018-07-16T18:24:54.232Z,39.08
2018-07-16T18:27:22.810Z,39.25
2018-07-16T18:29:51.912Z,39.79
2018-07-16T18:32:20.008Z,39.61
2018-07-16T18:34:48.447Z,39.72
2018-07-16T18:37:17.144Z,39.97
2018-07-16T18:39:45.584Z,39.91
2018-07-16T18:42:13.708Z,39.94
2018-07-16T18:44:42.330Z,40.91
2018-07-16T18:47:11.460Z,40.65
2018-07-16T18:49:40.032Z,40.73
2018-07-16T18:52:08.108Z,41.11
2018-07-16T18:54:36.508Z,40.62
2018-07-16T18:57:05.018Z,40.88
2018-07-16T18:59:34.552Z,41.21
2018-07-16T19:02:03.072Z,41.37
2018-07-16T19:04:31.405Z,41.21
2018-07-16T19:07:03.748Z,42.19
2018-07-16T19:09:32.250Z,42.14
2018-07-16T19:12:01.132Z,41.74
2018-07-16T19:14:30.137Z,42.92
2018-07-16T19:16:58.243Z,42.31
2018-07-16T19:19:26.951Z,43.24
2018-07-16T19:21:55.142Z,43.09
2018-07-16T19:24:24.085Z,43.85
2018-07-16T19:26:52.525Z,43.73
2018-07-16T19:29:21.227Z,43.31
2018-07-16T19:31:49.668Z,43.92
2018-07-16T19:34:17.773Z,44.27
2018-07-16T19:36:45.876Z,44.40
2018-07-16T19:39:14.350Z,45.05
2018-07-16T19:41:42.939Z,45.77
2018-07-16T19:44:11.048Z,45.20
2018-07-16T19:46:39.255Z,44.35
2018-07-16T19:49:07.964Z,44.86
2018-07-16T19:51:36.100Z,45.80
2018-07-16T19:54:04.749Z,45.69
2018-07-16T19:56:33.177Z,46.29
2018-07-16T19:59:02.009Z,46.34
2018-07-16T20:01:30.453Z,46.70
2018-07-16T20:03:59.424Z,47.77
2018-07-16T20:06:28.024Z,47.22
2018-07-16T20:08:56.147Z,47.38
2018-07-16T20:11:24.768Z,47.23
2018-07-16T20:13:53.129Z,48.56
2018-07-16T20:16:21.511Z,48.30
2018-07-16T20:18:50.268Z,49.21
2018-07-16T20:21:18.516Z,49.65
2018-07-16T20:23:47.205Z,49.84
2018-07-16T20:26:15.888Z,50.05
2018-07-16T20:28:44.355Z,49.92
2018-07-16T20:31:12.812Z,51.34
2018-07-16T20:33:41.304Z,51.43
2018-07-16T20:36:09.672Z,50.62
2018-07-16T20:38:37.948Z,51.05
2018-07-16T20:41:06.568Z,50.79
2018-07-16T20:43:35.039Z,50.56
2018-07-16T20:46:03.809Z,50.87
2018-07-16T20:48:32.825Z,50.92
2018-07-16T20:51:01.241Z,51.55
2018-07-16T20:53:29.973Z,51.32
2018-07-16T20:55:58.204Z,51.70
2018-07-16T20:58:26.651Z,52.36
2018-07-16T21:00:55.255Z,52.91
2018-07-16T21:03:23.904Z,52.68
2018-07-16T21:05:52.679Z,52.76
2018-07-16T21:08:21.328Z,52.18
2018-07-16T21:10:49.932Z,52.88
2018-07-16T21:13:18.416Z,52.44
2018-07-16T21:15:46.860Z,52.43
2018-07-16T21:18:15.037Z,53.34
2018-07-16T21:20:43.661Z,53.17
2018-07-16T21:23:12.408Z,53.76
2018-07-16T21:25:40.527Z,53.44
2018-07-16T21:28:09.774Z,52.57
2018-07-16T21:30:38.383Z,52.27
2018-07-16T21:33:07.115Z,52.48
2018-07-16T21:35:35.225Z,53.26
2018-07-16T21:38:03.943Z,53.33
2018-07-16T21:40:32.125Z,54.10
2018-07-16T21:43:01.013Z,53.84
2018-07-16T21:45:37.032Z,53.10
2018-07-16T21:48:05.699Z,53.97
2018-07-16T21:50:34.113Z,54.08
2018-07-16T21:53:02.445Z,54.63
2018-07-16T21:55:30.872Z,54.69
2018-07-16T21:57:59.495Z,55.40
2018-07-16T22:00:30.536Z,54.77
2018-07-16T22:03:00.080Z,55.28
2018-07-16T22:05:29.208Z,54.94
2018-07-16T22:07:58.329Z,55.41
2018-07-16T22:10:27.360Z,55.65
2018-07-16T22:12:56.649Z,55.61
2018-07-16T22:15:26.601Z,56.06
2018-07-16T22:17:55.948Z,56.92
2018-07-16T22:20:25.153Z,56.94
2018-07-16T22:22:53.579Z,56.75
2018-07-16T22:25:22.140Z,57.59
2018-07-16T22:27:50.424Z,58.84
2018-07-16T22:30:18.811Z,58.68
2018-07-16T22:32:47.795Z,59.74
2018-07-16T22:35:16.999Z,60.07
2018-07-16T22:37:45.632Z,60.26
2018-07-16T22:40:14.076Z,60.38
2018-07-16T22:42:42.509Z,60.79
2018-07-16T22:45:10.933Z,60.77
2018-07-16T22:47:39.412Z,61.93
2018-07-16T22:50:07.549Z,61.65
2018-07-16T22:52:35.992Z,62.18
2018-07-16T22:55:04.733Z,62.40
2018-07-16T22:57:32.857Z,62.17
2018-07-16T23:00:01.262Z,62.83
2018-07-16T23:02:29.488Z,62.56
2018-07-16T23:04:57.937Z,63.20
2018-07-16T23:07:26.599Z,63.34
2018-07-16T23:09:54.928Z,63.93
2018-07-16T23:12:23.556Z,63.97
2018-07-16T23:14:52.579Z,64.25
2018-07-16T23:17:20.895Z,64.08
2018-07-16T23:19:49.370Z,64.78
2018-07-16T23:22:17.813Z,64.82
2018-07-16T23:24:46.199Z,65.91
2018-07-16T23:27:14.541Z,65.45
2018-07-16T23:29:42.639Z,65.08
2018-07-16T23:32:10.784Z,65.36
2018-07-16T23:34:38.901Z,65.90
2018-07-16T23:37:29.737Z,66.12
2018-07-16T23:40:10.359Z,66.58
2018-07-16T23:42:38.800Z,66.34
2018-07-16T23:45:07.169Z,66.84
2018-07-16T23:47:35.759Z,67.11
2018-07-16T23:52:52.768Z,67.87
2018-07-16T23:55:21.428Z,68.55
2018-07-16T23:57:49.712Z,69.67
